sensor_id;sensor_type;location;lat;lon;timestamp;P1;durP1;ratioP1;P2;durP2;ratioP2
46777;SDS011;32536;47.128;8.746;2023-03-23T00:04:52;1.67;;;0.98;;
46777;SDS011;32536;47.128;8.746;2023-03-23T00:07:20;1.42;;;0.82;;
46777;SDS011;32536;47.128;8.746;2023-03-23T00:09:53;1.33;;;0.98;;
46777;SDS011;32536;47.128;8.746;2023-03-23T00:12:21;1.42;;;1.27;;
46777;SDS011;32536;47.128;8.746;2023-03-23T00:15:00;1.27;;;1.02;;
46777;SDS011;32536;47.128;8.746;2023-03-23T00:17:31;1.88;;;1.08;;
46777;SDS011;32536;47.128;8.746;2023-03-23T00:19:59;1.45;;;0.82;;
46777;SDS011;32536;47.128;8.746;2023-03-23T00:22:27;1.45;;;0.85;;
46777;SDS011;32536;47.128;8.746;2023-03-23T00:24:54;1.85;;;1.33;;
46777;SDS011;32536;47.128;8.746;2023-03-23T00:27:22;1.50;;;1.20;;
46777;SDS011;32536;47.128;8.746;2023-03-23T00:29:49;2.35;;;1.27;;
46777;SDS011;32536;47.128;8.746;2023-03-23T00:32:20;1.92;;;1.30;;
46777;SDS011;32536;47.128;8.746;2023-03-23T00:34:53;1.35;;;0.90;;
46777;SDS011;32536;47.128;8.746;2023-03-23T00:37:20;1.70;;;1.20;;
46777;SDS011;32536;47.128;8.746;2023-03-23T00:40:03;1.83;;;1.20;;
46777;SDS011;32536;47.128;8.746;2023-03-23T00:42:34;1.83;;;1.08;;
46777;SDS011;32536;47.128;8.746;2023-03-23T00:45:04;1.50;;;1.05;;
46777;SDS011;32536;47.128;8.746;2023-03-23T00:47:36;1.95;;;0.85;;
46777;SDS011;32536;47.128;8.746;2023-03-23T00:50:04;1.30;;;0.88;;
46777;SDS011;32536;47.128;8.746;2023-03-23T00:52:31;1.20;;;1.10;;
46777;SDS011;32536;47.128;8.746;2023-03-23T00:54:58;1.48;;;1.05;;
46777;SDS011;32536;47.128;8.746;2023-03-23T00:57:25;1.67;;;1.17;;
46777;SDS011;32536;47.128;8.746;2023-03-23T00:59:51;1.27;;;0.98;;
46777;SDS011;32536;47.128;8.746;2023-03-23T01:02:18;1.55;;;1.15;;
46777;SDS011;32536;47.128;8.746;2023-03-23T01:04:45;2.03;;;1.02;;
46777;SDS011;32536;47.128;8.746;2023-03-23T01:07:12;1.85;;;1.55;;
46777;SDS011;32536;47.128;8.746;2023-03-23T01:09:39;1.63;;;1.23;;
46777;SDS011;32536;47.128;8.746;2023-03-23T01:12:10;1.92;;;1.60;;
46777;SDS011;32536;47.128;8.746;2023-03-23T01:14:37;1.50;;;1.02;;
46777;SDS011;32536;47.128;8.746;2023-03-23T01:17:04;1.48;;;0.90;;
46777;SDS011;32536;47.128;8.746;2023-03-23T01:19:31;1.65;;;1.08;;
46777;SDS011;32536;47.128;8.746;2023-03-23T01:21:58;2.13;;;1.15;;
46777;SDS011;32536;47.128;8.746;2023-03-23T01:24:24;2.15;;;1.05;;
46777;SDS011;32536;47.128;8.746;2023-03-23T01:26:51;1.23;;;0.90;;
46777;SDS011;32536;47.128;8.746;2023-03-23T01:29:18;1.65;;;0.98;;
46777;SDS011;32536;47.128;8.746;2023-03-23T01:31:45;1.45;;;1.13;;
46777;SDS011;32536;47.128;8.746;2023-03-23T01:34:11;1.50;;;0.98;;
46777;SDS011;32536;47.128;8.746;2023-03-23T01:36:38;2.10;;;0.98;;
46777;SDS011;32536;47.128;8.746;2023-03-23T01:39:05;1.17;;;0.90;;
46777;SDS011;32536;47.128;8.746;2023-03-23T01:41:32;1.45;;;1.17;;
46777;SDS011;32536;47.128;8.746;2023-03-23T01:44:07;1.30;;;1.13;;
46777;SDS011;32536;47.128;8.746;2023-03-23T01:46:43;1.70;;;0.82;;
46777;SDS011;32536;47.128;8.746;2023-03-23T01:49:12;2.17;;;1.30;;
46777;SDS011;32536;47.128;8.746;2023-03-23T01:51:48;1.65;;;1.00;;
46777;SDS011;32536;47.128;8.746;2023-03-23T01:54:22;2.28;;;1.42;;
46777;SDS011;32536;47.128;8.746;2023-03-23T01:56:52;2.17;;;1.20;;
46777;SDS011;32536;47.128;8.746;2023-03-23T01:59:26;1.52;;;1.13;;
46777;SDS011;32536;47.128;8.746;2023-03-23T02:01:54;2.08;;;1.08;;
46777;SDS011;32536;47.128;8.746;2023-03-23T02:04:22;1.50;;;0.77;;
46777;SDS011;32536;47.128;8.746;2023-03-23T02:06:53;2.70;;;1.52;;
46777;SDS011;32536;47.128;8.746;2023-03-23T02:09:22;2.65;;;1.88;;
46777;SDS011;32536;47.128;8.746;2023-03-23T02:11:51;2.17;;;1.10;;
46777;SDS011;32536;47.128;8.746;2023-03-23T02:14:20;2.10;;;1.17;;
46777;SDS011;32536;47.128;8.746;2023-03-23T02:28:57;2.17;;;1.20;;
46777;SDS011;32536;47.128;8.746;2023-03-23T02:34:57;1.25;;;0.80;;
46777;SDS011;32536;47.128;8.746;2023-03-23T02:37:31;1.88;;;1.13;;
46777;SDS011;32536;47.128;8.746;2023-03-23T02:40:12;1.27;;;1.15;;
46777;SDS011;32536;47.128;8.746;2023-03-23T02:43:04;1.80;;;1.02;;
46777;SDS011;32536;47.128;8.746;2023-03-23T02:45:37;1.40;;;0.93;;
46777;SDS011;32536;47.128;8.746;2023-03-23T02:48:05;1.17;;;0.95;;
46777;SDS011;32536;47.128;8.746;2023-03-23T02:50:33;1.40;;;1.17;;
46777;SDS011;32536;47.128;8.746;2023-03-23T02:53:03;1.35;;;1.02;;
46777;SDS011;32536;47.128;8.746;2023-03-23T02:55:36;1.38;;;0.70;;
46777;SDS011;32536;47.128;8.746;2023-03-23T02:58:08;1.92;;;1.17;;
46777;SDS011;32536;47.128;8.746;2023-03-23T03:00:36;1.42;;;1.10;;
46777;SDS011;32536;47.128;8.746;2023-03-23T03:03:05;1.67;;;1.30;;
46777;SDS011;32536;47.128;8.746;2023-03-23T03:11:33;1.73;;;1.10;;
46777;SDS011;32536;47.128;8.746;2023-03-23T03:14:07;2.70;;;1.58;;
46777;SDS011;32536;47.128;8.746;2023-03-23T03:19:43;1.73;;;1.05;;
46777;SDS011;32536;47.128;8.746;2023-03-23T03:22:15;1.65;;;0.93;;
46777;SDS011;32536;47.128;8.746;2023-03-23T03:24:46;1.80;;;1.10;;
46777;SDS011;32536;47.128;8.746;2023-03-23T03:27:15;1.52;;;0.90;;
46777;SDS011;32536;47.128;8.746;2023-03-23T03:29:45;2.03;;;1.25;;
46777;SDS011;32536;47.128;8.746;2023-03-23T03:32:20;1.98;;;1.00;;
46777;SDS011;32536;47.128;8.746;2023-03-23T03:35:01;1.45;;;0.88;;
46777;SDS011;32536;47.128;8.746;2023-03-23T03:37:33;2.15;;;1.17;;
46777;SDS011;32536;47.128;8.746;2023-03-23T03:40:14;3.10;;;1.70;;
46777;SDS011;32536;47.128;8.746;2023-03-23T03:42:44;2.05;;;1.35;;
46777;SDS011;32536;47.128;8.746;2023-03-23T03:45:16;1.90;;;1.10;;
46777;SDS011;32536;47.128;8.746;2023-03-23T03:47:45;1.50;;;0.75;;
46777;SDS011;32536;47.128;8.746;2023-03-23T03:50:12;3.25;;;1.25;;
46777;SDS011;32536;47.128;8.746;2023-03-23T03:52:39;2.13;;;1.40;;
46777;SDS011;32536;47.128;8.746;2023-03-23T03:55:07;1.98;;;1.05;;
46777;SDS011;32536;47.128;8.746;2023-03-23T03:57:36;1.73;;;1.15;;
46777;SDS011;32536;47.128;8.746;2023-03-23T04:00:03;2.10;;;1.25;;
46777;SDS011;32536;47.128;8.746;2023-03-23T04:02:43;2.40;;;1.48;;
46777;SDS011;32536;47.128;8.746;2023-03-23T04:05:20;2.50;;;1.90;;
46777;SDS011;32536;47.128;8.746;2023-03-23T04:07:49;3.00;;;1.48;;
46777;SDS011;32536;47.128;8.746;2023-03-23T04:10:17;2.63;;;1.50;;
46777;SDS011;32536;47.128;8.746;2023-03-23T04:12:47;2.75;;;1.42;;
46777;SDS011;32536;47.128;8.746;2023-03-23T04:15:16;2.67;;;1.42;;
46777;SDS011;32536;47.128;8.746;2023-03-23T04:17:43;1.75;;;1.20;;
46777;SDS011;32536;47.128;8.746;2023-03-23T04:20:10;1.73;;;0.98;;
46777;SDS011;32536;47.128;8.746;2023-03-23T04:22:46;1.70;;;0.77;;
46777;SDS011;32536;47.128;8.746;2023-03-23T04:25:18;1.42;;;1.00;;
46777;SDS011;32536;47.128;8.746;2023-03-23T04:27:49;1.85;;;1.17;;
46777;SDS011;32536;47.128;8.746;2023-03-23T04:30:20;2.05;;;0.98;;
46777;SDS011;32536;47.128;8.746;2023-03-23T04:32:50;2.55;;;1.27;;
46777;SDS011;32536;47.128;8.746;2023-03-23T04:35:22;2.38;;;1.75;;
46777;SDS011;32536;47.128;8.746;2023-03-23T04:37:51;1.65;;;1.10;;
46777;SDS011;32536;47.128;8.746;2023-03-23T04:40:19;1.95;;;1.25;;
46777;SDS011;32536;47.128;8.746;2023-03-23T04:42:48;2.88;;;1.52;;
46777;SDS011;32536;47.128;8.746;2023-03-23T04:45:20;2.13;;;1.13;;
46777;SDS011;32536;47.128;8.746;2023-03-23T04:47:51;1.92;;;1.00;;
46777;SDS011;32536;47.128;8.746;2023-03-23T04:50:23;2.25;;;1.27;;
46777;SDS011;32536;47.128;8.746;2023-03-23T04:53:01;1.73;;;1.25;;
46777;SDS011;32536;47.128;8.746;2023-03-23T04:55:30;1.70;;;1.30;;
46777;SDS011;32536;47.128;8.746;2023-03-23T04:58:05;2.30;;;1.40;;
46777;SDS011;32536;47.128;8.746;2023-03-23T05:00:34;2.28;;;1.23;;
46777;SDS011;32536;47.128;8.746;2023-03-23T05:03:01;2.28;;;1.33;;
46777;SDS011;32536;47.128;8.746;2023-03-23T05:05:29;3.75;;;1.90;;
46777;SDS011;32536;47.128;8.746;2023-03-23T05:07:56;3.03;;;1.48;;
46777;SDS011;32536;47.128;8.746;2023-03-23T05:10:23;2.15;;;1.05;;
46777;SDS011;32536;47.128;8.746;2023-03-23T05:12:50;1.73;;;0.98;;
46777;SDS011;32536;47.128;8.746;2023-03-23T05:15:19;2.38;;;1.17;;
46777;SDS011;32536;47.128;8.746;2023-03-23T05:17:46;2.83;;;1.35;;
46777;SDS011;32536;47.128;8.746;2023-03-23T05:20:15;2.25;;;1.42;;
46777;SDS011;32536;47.128;8.746;2023-03-23T05:22:46;2.28;;;1.80;;
46777;SDS011;32536;47.128;8.746;2023-03-23T05:25:14;1.80;;;1.15;;
46777;SDS011;32536;47.128;8.746;2023-03-23T05:27:45;1.80;;;0.95;;
46777;SDS011;32536;47.128;8.746;2023-03-23T05:30:19;2.10;;;1.10;;
46777;SDS011;32536;47.128;8.746;2023-03-23T05:32:47;1.30;;;0.77;;
46777;SDS011;32536;47.128;8.746;2023-03-23T05:35:18;1.75;;;1.13;;
46777;SDS011;32536;47.128;8.746;2023-03-23T05:37:46;1.73;;;1.08;;
46777;SDS011;32536;47.128;8.746;2023-03-23T05:40:22;2.20;;;1.23;;
46777;SDS011;32536;47.128;8.746;2023-03-23T05:42:51;1.60;;;0.98;;
46777;SDS011;32536;47.128;8.746;2023-03-23T05:45:18;1.95;;;1.05;;
46777;SDS011;32536;47.128;8.746;2023-03-23T05:47:47;1.75;;;1.00;;
46777;SDS011;32536;47.128;8.746;2023-03-23T05:50:13;3.45;;;1.25;;
46777;SDS011;32536;47.128;8.746;2023-03-23T05:52:40;2.20;;;1.25;;
46777;SDS011;32536;47.128;8.746;2023-03-23T05:55:07;1.80;;;0.98;;
46777;SDS011;32536;47.128;8.746;2023-03-23T05:57:35;1.77;;;0.90;;
46777;SDS011;32536;47.128;8.746;2023-03-23T06:00:02;2.03;;;1.00;;
46777;SDS011;32536;47.128;8.746;2023-03-23T06:02:44;2.83;;;1.33;;
46777;SDS011;32536;47.128;8.746;2023-03-23T06:05:13;1.80;;;1.15;;
46777;SDS011;32536;47.128;8.746;2023-03-23T06:07:42;2.35;;;1.33;;
46777;SDS011;32536;47.128;8.746;2023-03-23T06:10:09;2.65;;;1.77;;
46777;SDS011;32536;47.128;8.746;2023-03-23T06:12:37;1.55;;;1.23;;
46777;SDS011;32536;47.128;8.746;2023-03-23T06:15:06;1.77;;;1.30;;
46777;SDS011;32536;47.128;8.746;2023-03-23T06:17:34;1.60;;;1.10;;
46777;SDS011;32536;47.128;8.746;2023-03-23T06:20:02;1.20;;;0.85;;
46777;SDS011;32536;47.128;8.746;2023-03-23T06:22:38;1.33;;;1.17;;
46777;SDS011;32536;47.128;8.746;2023-03-23T06:25:06;2.22;;;1.80;;
46777;SDS011;32536;47.128;8.746;2023-03-23T06:27:35;1.73;;;0.93;;
46777;SDS011;32536;47.128;8.746;2023-03-23T06:30:02;2.45;;;1.35;;
46777;SDS011;32536;47.128;8.746;2023-03-23T06:32:31;0.95;;;0.68;;
46777;SDS011;32536;47.128;8.746;2023-03-23T06:34:59;1.65;;;1.23;;
46777;SDS011;32536;47.128;8.746;2023-03-23T06:37:26;2.42;;;1.15;;
46777;SDS011;32536;47.128;8.746;2023-03-23T06:42:49;1.33;;;0.98;;
46777;SDS011;32536;47.128;8.746;2023-03-23T06:45:16;1.80;;;1.10;;
46777;SDS011;32536;47.128;8.746;2023-03-23T06:47:45;2.88;;;1.50;;
46777;SDS011;32536;47.128;8.746;2023-03-23T06:50:14;2.22;;;1.52;;
46777;SDS011;32536;47.128;8.746;2023-03-23T06:52:49;2.13;;;1.02;;
46777;SDS011;32536;47.128;8.746;2023-03-23T06:55:17;2.65;;;1.20;;
46777;SDS011;32536;47.128;8.746;2023-03-23T06:57:44;1.92;;;1.15;;
46777;SDS011;32536;47.128;8.746;2023-03-23T07:00:13;1.92;;;1.08;;
46777;SDS011;32536;47.128;8.746;2023-03-23T07:02:40;2.88;;;1.33;;
46777;SDS011;32536;47.128;8.746;2023-03-23T07:05:08;2.25;;;1.48;;
46777;SDS011;32536;47.128;8.746;2023-03-23T07:07:37;2.28;;;1.17;;
46777;SDS011;32536;47.128;8.746;2023-03-23T07:10:06;2.13;;;1.17;;
46777;SDS011;32536;47.128;8.746;2023-03-23T07:12:35;3.28;;;1.60;;
46777;SDS011;32536;47.128;8.746;2023-03-23T07:15:03;2.22;;;1.23;;
46777;SDS011;32536;47.128;8.746;2023-03-23T07:17:31;1.58;;;0.95;;
46777;SDS011;32536;47.128;8.746;2023-03-23T07:19:57;2.53;;;0.98;;
46777;SDS011;32536;47.128;8.746;2023-03-23T07:22:24;2.58;;;1.55;;
46777;SDS011;32536;47.128;8.746;2023-03-23T07:24:51;3.25;;;1.35;;
46777;SDS011;32536;47.128;8.746;2023-03-23T07:27:18;2.03;;;1.05;;
46777;SDS011;32536;47.128;8.746;2023-03-23T07:29:44;2.63;;;1.70;;
46777;SDS011;32536;47.128;8.746;2023-03-23T07:32:11;1.73;;;1.20;;
46777;SDS011;32536;47.128;8.746;2023-03-23T07:34:38;3.55;;;1.38;;
46777;SDS011;32536;47.128;8.746;2023-03-23T07:37:06;2.22;;;1.27;;
46777;SDS011;32536;47.128;8.746;2023-03-23T07:39:33;2.28;;;0.88;;
46777;SDS011;32536;47.128;8.746;2023-03-23T07:42:01;1.80;;;1.20;;
46777;SDS011;32536;47.128;8.746;2023-03-23T07:44:28;1.65;;;1.05;;
46777;SDS011;32536;47.128;8.746;2023-03-23T07:46:55;2.13;;;1.15;;
46777;SDS011;32536;47.128;8.746;2023-03-23T07:49:22;2.15;;;1.15;;
46777;SDS011;32536;47.128;8.746;2023-03-23T07:51:48;2.15;;;1.38;;
46777;SDS011;32536;47.128;8.746;2023-03-23T07:54:15;2.53;;;1.17;;
46777;SDS011;32536;47.128;8.746;2023-03-23T07:56:42;2.05;;;1.23;;
46777;SDS011;32536;47.128;8.746;2023-03-23T07:59:11;1.83;;;1.08;;
46777;SDS011;32536;47.128;8.746;2023-03-23T08:01:38;2.40;;;0.77;;
46777;SDS011;32536;47.128;8.746;2023-03-23T08:04:05;1.92;;;1.17;;
46777;SDS011;32536;47.128;8.746;2023-03-23T08:06:33;1.88;;;1.02;;
46777;SDS011;32536;47.128;8.746;2023-03-23T08:09:01;2.20;;;1.17;;
46777;SDS011;32536;47.128;8.746;2023-03-23T08:11:33;1.65;;;1.05;;
46777;SDS011;32536;47.128;8.746;2023-03-23T08:14:01;2.80;;;2.22;;
46777;SDS011;32536;47.128;8.746;2023-03-23T08:16:28;2.08;;;1.02;;
46777;SDS011;32536;47.128;8.746;2023-03-23T08:18:55;2.17;;;1.30;;
46777;SDS011;32536;47.128;8.746;2023-03-23T08:21:22;2.25;;;1.08;;
46777;SDS011;32536;47.128;8.746;2023-03-23T08:23:49;2.60;;;1.00;;
46777;SDS011;32536;47.128;8.746;2023-03-23T08:26:16;2.13;;;0.95;;
46777;SDS011;32536;47.128;8.746;2023-03-23T08:28:43;2.38;;;1.00;;
46777;SDS011;32536;47.128;8.746;2023-03-23T08:31:11;2.28;;;1.30;;
46777;SDS011;32536;47.128;8.746;2023-03-23T08:33:39;1.95;;;1.00;;
46777;SDS011;32536;47.128;8.746;2023-03-23T08:36:07;1.70;;;1.13;;
46777;SDS011;32536;47.128;8.746;2023-03-23T08:38:35;2.28;;;1.23;;
46777;SDS011;32536;47.128;8.746;2023-03-23T08:41:03;4.20;;;2.22;;
46777;SDS011;32536;47.128;8.746;2023-03-23T08:43:33;3.17;;;2.30;;
46777;SDS011;32536;47.128;8.746;2023-03-23T08:46:01;4.05;;;1.75;;
46777;SDS011;32536;47.128;8.746;2023-03-23T08:48:32;2.72;;;1.60;;
46777;SDS011;32536;47.128;8.746;2023-03-23T08:51:01;2.92;;;1.20;;
46777;SDS011;32536;47.128;8.746;2023-03-23T08:53:29;4.03;;;1.70;;
46777;SDS011;32536;47.128;8.746;2023-03-23T08:56:02;2.88;;;1.42;;
46777;SDS011;32536;47.128;8.746;2023-03-23T08:58:31;2.58;;;1.10;;
46777;SDS011;32536;47.128;8.746;2023-03-23T09:00:59;4.03;;;3.00;;
46777;SDS011;32536;47.128;8.746;2023-03-23T09:03:26;2.53;;;1.35;;
46777;SDS011;32536;47.128;8.746;2023-03-23T09:05:53;2.35;;;1.23;;
46777;SDS011;32536;47.128;8.746;2023-03-23T09:08:26;2.85;;;1.83;;
46777;SDS011;32536;47.128;8.746;2023-03-23T09:11:01;5.13;;;2.17;;
46777;SDS011;32536;47.128;8.746;2023-03-23T09:13:33;3.10;;;1.70;;
46777;SDS011;32536;47.128;8.746;2023-03-23T09:16:01;2.65;;;1.52;;
46777;SDS011;32536;47.128;8.746;2023-03-23T09:18:30;3.63;;;1.88;;
46777;SDS011;32536;47.128;8.746;2023-03-23T09:20:58;3.85;;;1.70;;
46777;SDS011;32536;47.128;8.746;2023-03-23T09:23:26;4.28;;;2.50;;
46777;SDS011;32536;47.128;8.746;2023-03-23T09:25:53;3.63;;;1.90;;
46777;SDS011;32536;47.128;8.746;2023-03-23T09:28:20;3.53;;;1.70;;
46777;SDS011;32536;47.128;8.746;2023-03-23T09:30:47;4.68;;;1.98;;
46777;SDS011;32536;47.128;8.746;2023-03-23T09:33:14;3.28;;;1.88;;
46777;SDS011;32536;47.128;8.746;2023-03-23T09:35:41;3.00;;;1.67;;
46777;SDS011;32536;47.128;8.746;2023-03-23T09:38:09;3.15;;;1.73;;
46777;SDS011;32536;47.128;8.746;2023-03-23T09:40:46;2.97;;;1.55;;
46777;SDS011;32536;47.128;8.746;2023-03-23T09:49:12;3.20;;;1.58;;
46777;SDS011;32536;47.128;8.746;2023-03-23T09:52:04;3.35;;;1.75;;
46777;SDS011;32536;47.128;8.746;2023-03-23T09:54:44;3.10;;;1.08;;
46777;SDS011;32536;47.128;8.746;2023-03-23T10:00:29;2.50;;;1.20;;
46777;SDS011;32536;47.128;8.746;2023-03-23T10:03:17;2.35;;;1.52;;
46777;SDS011;32536;47.128;8.746;2023-03-23T10:05:57;2.25;;;1.80;;
46777;SDS011;32536;47.128;8.746;2023-03-23T10:08:25;2.72;;;1.20;;
46777;SDS011;32536;47.128;8.746;2023-03-23T10:11:04;2.60;;;1.10;;
46777;SDS011;32536;47.128;8.746;2023-03-23T10:16:42;2.05;;;1.27;;
46777;SDS011;32536;47.128;8.746;2023-03-23T10:22:32;1.65;;;0.98;;
46777;SDS011;32536;47.128;8.746;2023-03-23T10:25:08;2.00;;;0.85;;
46777;SDS011;32536;47.128;8.746;2023-03-23T10:27:53;2.33;;;1.13;;
46777;SDS011;32536;47.128;8.746;2023-03-23T10:30:38;2.83;;;0.88;;
46777;SDS011;32536;47.128;8.746;2023-03-23T10:33:40;1.95;;;1.02;;
46777;SDS011;32536;47.128;8.746;2023-03-23T10:36:10;2.05;;;0.88;;
46777;SDS011;32536;47.128;8.746;2023-03-23T10:38:58;3.35;;;1.38;;
46777;SDS011;32536;47.128;8.746;2023-03-23T10:41:31;2.03;;;1.13;;
46777;SDS011;32536;47.128;8.746;2023-03-23T10:44:08;1.67;;;0.73;;
46777;SDS011;32536;47.128;8.746;2023-03-23T10:46:56;1.55;;;0.90;;
46777;SDS011;32536;47.128;8.746;2023-03-23T10:49:28;1.35;;;0.95;;
46777;SDS011;32536;47.128;8.746;2023-03-23T10:54:39;2.65;;;1.38;;
46777;SDS011;32536;47.128;8.746;2023-03-23T10:57:24;1.02;;;0.80;;
46777;SDS011;32536;47.128;8.746;2023-03-23T11:02:43;2.42;;;1.02;;
46777;SDS011;32536;47.128;8.746;2023-03-23T11:05:37;1.90;;;0.88;;
46777;SDS011;32536;47.128;8.746;2023-03-23T11:08:21;1.60;;;0.80;;
46777;SDS011;32536;47.128;8.746;2023-03-23T11:13:42;2.30;;;1.20;;
46777;SDS011;32536;47.128;8.746;2023-03-23T11:16:21;2.38;;;0.90;;
46777;SDS011;32536;47.128;8.746;2023-03-23T11:18:54;2.80;;;1.23;;
46777;SDS011;32536;47.128;8.746;2023-03-23T11:21:23;2.85;;;1.25;;
46777;SDS011;32536;47.128;8.746;2023-03-23T11:23:53;2.75;;;1.17;;
46777;SDS011;32536;47.128;8.746;2023-03-23T11:28:58;2.67;;;1.25;;
46777;SDS011;32536;47.128;8.746;2023-03-23T11:31:41;2.08;;;1.08;;
46777;SDS011;32536;47.128;8.746;2023-03-23T11:34:20;3.13;;;1.10;;
46777;SDS011;32536;47.128;8.746;2023-03-23T11:36:51;1.83;;;1.05;;
46777;SDS011;32536;47.128;8.746;2023-03-23T11:41:58;2.38;;;1.15;;
46777;SDS011;32536;47.128;8.746;2023-03-23T11:44:43;2.78;;;1.15;;
46777;SDS011;32536;47.128;8.746;2023-03-23T11:47:16;1.95;;;0.98;;
46777;SDS011;32536;47.128;8.746;2023-03-23T11:52:57;2.40;;;1.10;;
46777;SDS011;32536;47.128;8.746;2023-03-23T11:56:07;1.88;;;0.88;;
46777;SDS011;32536;47.128;8.746;2023-03-23T11:58:44;1.70;;;0.60;;
46777;SDS011;32536;47.128;8.746;2023-03-23T12:04:09;1.67;;;0.88;;
46777;SDS011;32536;47.128;8.746;2023-03-23T12:10:08;2.22;;;1.08;;
46777;SDS011;32536;47.128;8.746;2023-03-23T12:12:56;2.72;;;0.98;;
46777;SDS011;32536;47.128;8.746;2023-03-23T12:15:52;1.55;;;0.90;;
46777;SDS011;32536;47.128;8.746;2023-03-23T12:21:38;1.88;;;0.98;;
46777;SDS011;32536;47.128;8.746;2023-03-23T12:32:41;2.67;;;1.52;;
46777;SDS011;32536;47.128;8.746;2023-03-23T12:35:31;2.78;;;1.27;;
46777;SDS011;32536;47.128;8.746;2023-03-23T12:44:11;2.20;;;1.40;;
46777;SDS011;32536;47.128;8.746;2023-03-23T12:46:59;2.13;;;1.25;;
46777;SDS011;32536;47.128;8.746;2023-03-23T12:56:17;2.00;;;0.85;;
46777;SDS011;32536;47.128;8.746;2023-03-23T13:01:26;2.00;;;0.95;;
46777;SDS011;32536;47.128;8.746;2023-03-23T13:04:01;1.35;;;0.68;;
46777;SDS011;32536;47.128;8.746;2023-03-23T13:06:47;2.20;;;0.75;;
46777;SDS011;32536;47.128;8.746;2023-03-23T13:09:30;2.03;;;0.93;;
46777;SDS011;32536;47.128;8.746;2023-03-23T13:12:13;2.10;;;0.90;;
46777;SDS011;32536;47.128;8.746;2023-03-23T13:18:24;0.90;;;0.70;;
46777;SDS011;32536;47.128;8.746;2023-03-23T13:21:27;1.27;;;0.73;;
46777;SDS011;32536;47.128;8.746;2023-03-23T13:24:01;2.10;;;0.88;;
46777;SDS011;32536;47.128;8.746;2023-03-23T13:26:37;1.50;;;0.80;;
46777;SDS011;32536;47.128;8.746;2023-03-23T13:29:19;1.90;;;0.95;;
46777;SDS011;32536;47.128;8.746;2023-03-23T13:31:50;1.85;;;1.02;;
46777;SDS011;32536;47.128;8.746;2023-03-23T13:34:30;2.75;;;1.33;;
46777;SDS011;32536;47.128;8.746;2023-03-23T13:36:59;1.73;;;0.70;;
46777;SDS011;32536;47.128;8.746;2023-03-23T13:39:50;2.75;;;1.30;;
46777;SDS011;32536;47.128;8.746;2023-03-23T13:42:59;3.65;;;1.17;;
46777;SDS011;32536;47.128;8.746;2023-03-23T13:48:04;2.15;;;0.82;;
46777;SDS011;32536;47.128;8.746;2023-03-23T13:50:50;1.85;;;0.85;;
46777;SDS011;32536;47.128;8.746;2023-03-23T13:53:24;1.95;;;0.90;;
46777;SDS011;32536;47.128;8.746;2023-03-23T14:01:32;2.08;;;0.80;;
46777;SDS011;32536;47.128;8.746;2023-03-23T14:04:05;3.00;;;1.45;;
46777;SDS011;32536;47.128;8.746;2023-03-23T14:06:44;4.85;;;1.83;;
46777;SDS011;32536;47.128;8.746;2023-03-23T14:12:00;2.63;;;1.27;;
46777;SDS011;32536;47.128;8.746;2023-03-23T14:14:40;3.67;;;1.50;;
46777;SDS011;32536;47.128;8.746;2023-03-23T14:17:16;4.45;;;2.08;;
46777;SDS011;32536;47.128;8.746;2023-03-23T14:19:48;2.55;;;1.23;;
46777;SDS011;32536;47.128;8.746;2023-03-23T14:22:25;2.90;;;1.42;;
46777;SDS011;32536;47.128;8.746;2023-03-23T14:25:02;3.35;;;1.52;;
46777;SDS011;32536;47.128;8.746;2023-03-23T14:27:41;2.35;;;1.00;;
46777;SDS011;32536;47.128;8.746;2023-03-23T14:30:15;4.47;;;1.27;;
46777;SDS011;32536;47.128;8.746;2023-03-23T14:32:45;4.00;;;1.45;;
46777;SDS011;32536;47.128;8.746;2023-03-23T14:35:22;3.25;;;1.60;;
46777;SDS011;32536;47.128;8.746;2023-03-23T14:37:56;2.65;;;1.27;;
46777;SDS011;32536;47.128;8.746;2023-03-23T14:43:20;3.72;;;1.65;;
46777;SDS011;32536;47.128;8.746;2023-03-23T14:45:50;6.05;;;2.35;;
46777;SDS011;32536;47.128;8.746;2023-03-23T14:48:20;3.20;;;1.52;;
46777;SDS011;32536;47.128;8.746;2023-03-23T14:50:57;3.30;;;1.60;;
46777;SDS011;32536;47.128;8.746;2023-03-23T14:56:12;2.65;;;1.42;;
46777;SDS011;32536;47.128;8.746;2023-03-23T14:58:45;3.55;;;1.98;;
46777;SDS011;32536;47.128;8.746;2023-03-23T15:01:15;3.65;;;1.83;;
46777;SDS011;32536;47.128;8.746;2023-03-23T15:06:32;2.88;;;1.48;;
46777;SDS011;32536;47.128;8.746;2023-03-23T15:09:04;4.97;;;1.60;;
46777;SDS011;32536;47.128;8.746;2023-03-23T15:11:38;4.85;;;2.00;;
46777;SDS011;32536;47.128;8.746;2023-03-23T15:14:17;3.45;;;1.58;;
46777;SDS011;32536;47.128;8.746;2023-03-23T15:16:49;4.30;;;2.47;;
46777;SDS011;32536;47.128;8.746;2023-03-23T15:19:19;4.43;;;2.63;;
46777;SDS011;32536;47.128;8.746;2023-03-23T15:21:52;5.22;;;2.08;;
46777;SDS011;32536;47.128;8.746;2023-03-23T15:24:26;5.93;;;3.03;;
46777;SDS011;32536;47.128;8.746;2023-03-23T15:29:53;4.07;;;1.58;;
46777;SDS011;32536;47.128;8.746;2023-03-23T15:32:28;3.85;;;1.95;;
46777;SDS011;32536;47.128;8.746;2023-03-23T15:35:04;4.00;;;1.98;;
46777;SDS011;32536;47.128;8.746;2023-03-23T15:37:51;4.30;;;2.20;;
46777;SDS011;32536;47.128;8.746;2023-03-23T15:43:30;4.35;;;2.65;;
46777;SDS011;32536;47.128;8.746;2023-03-23T15:48:44;4.57;;;2.20;;
46777;SDS011;32536;47.128;8.746;2023-03-23T15:51:36;3.45;;;1.75;;
46777;SDS011;32536;47.128;8.746;2023-03-23T15:54:03;3.08;;;1.52;;
46777;SDS011;32536;47.128;8.746;2023-03-23T15:56:33;4.15;;;1.85;;
46777;SDS011;32536;47.128;8.746;2023-03-23T15:59:00;2.72;;;1.38;;
46777;SDS011;32536;47.128;8.746;2023-03-23T16:01:27;4.43;;;1.48;;
46777;SDS011;32536;47.128;8.746;2023-03-23T16:03:58;3.67;;;1.67;;
46777;SDS011;32536;47.128;8.746;2023-03-23T16:06:44;3.13;;;1.33;;
46777;SDS011;32536;47.128;8.746;2023-03-23T16:09:13;2.58;;;1.25;;
46777;SDS011;32536;47.128;8.746;2023-03-23T16:11:43;2.75;;;1.25;;
46777;SDS011;32536;47.128;8.746;2023-03-23T16:14:10;1.58;;;0.88;;
46777;SDS011;32536;47.128;8.746;2023-03-23T16:16:38;3.45;;;1.52;;
46777;SDS011;32536;47.128;8.746;2023-03-23T16:19:13;2.20;;;1.15;;
46777;SDS011;32536;47.128;8.746;2023-03-23T16:21:41;1.80;;;0.85;;
46777;SDS011;32536;47.128;8.746;2023-03-23T16:24:08;1.88;;;0.88;;
46777;SDS011;32536;47.128;8.746;2023-03-23T16:26:36;1.67;;;0.80;;
46777;SDS011;32536;47.128;8.746;2023-03-23T16:29:09;2.30;;;1.10;;
46777;SDS011;32536;47.128;8.746;2023-03-23T16:31:38;5.00;;;1.95;;
46777;SDS011;32536;47.128;8.746;2023-03-23T16:34:05;2.55;;;0.98;;
46777;SDS011;32536;47.128;8.746;2023-03-23T16:36:33;2.58;;;1.45;;
46777;SDS011;32536;47.128;8.746;2023-03-23T16:39:00;3.55;;;1.80;;
46777;SDS011;32536;47.128;8.746;2023-03-23T16:41:27;2.25;;;1.17;;
46777;SDS011;32536;47.128;8.746;2023-03-23T16:43:53;2.85;;;1.08;;
46777;SDS011;32536;47.128;8.746;2023-03-23T16:46:20;2.95;;;1.52;;
46777;SDS011;32536;47.128;8.746;2023-03-23T16:48:47;3.58;;;1.58;;
46777;SDS011;32536;47.128;8.746;2023-03-23T16:51:14;3.17;;;1.67;;
46777;SDS011;32536;47.128;8.746;2023-03-23T16:53:41;4.40;;;1.80;;
46777;SDS011;32536;47.128;8.746;2023-03-23T16:56:07;3.55;;;1.48;;
46777;SDS011;32536;47.128;8.746;2023-03-23T16:58:34;2.10;;;1.00;;
46777;SDS011;32536;47.128;8.746;2023-03-23T17:01:01;2.50;;;1.23;;
46777;SDS011;32536;47.128;8.746;2023-03-23T17:03:28;2.60;;;1.35;;
46777;SDS011;32536;47.128;8.746;2023-03-23T17:05:55;3.17;;;1.20;;
46777;SDS011;32536;47.128;8.746;2023-03-23T17:08:22;3.00;;;1.48;;
46777;SDS011;32536;47.128;8.746;2023-03-23T17:10:49;2.08;;;1.05;;
46777;SDS011;32536;47.128;8.746;2023-03-23T17:13:16;2.90;;;1.27;;
46777;SDS011;32536;47.128;8.746;2023-03-23T17:15:43;3.17;;;1.52;;
46777;SDS011;32536;47.128;8.746;2023-03-23T17:18:11;3.15;;;1.52;;
46777;SDS011;32536;47.128;8.746;2023-03-23T17:20:38;2.60;;;1.42;;
46777;SDS011;32536;47.128;8.746;2023-03-23T17:23:05;2.50;;;1.45;;